sensor_id;sensor_type;location;lat;lon;timestamp;P1;durP1;ratioP1;P2;durP2;ratioP2
10418;SDS011;5256;48.728;9.140;2022-08-18T00:01:16;0.23;;;0.23;;
10418;SDS011;5256;48.728;9.140;2022-08-18T00:03:43;0.30;;;0.30;;
10418;SDS011;5256;48.728;9.140;2022-08-18T00:06:09;0.20;;;0.20;;
10418;SDS011;5256;48.728;9.140;2022-08-18T00:08:35;0.30;;;0.30;;
10418;SDS011;5256;48.728;9.140;2022-08-18T00:11:01;0.30;;;0.30;;
10418;SDS011;5256;48.728;9.140;2022-08-18T00:13:26;0.23;;;0.23;;
10418;SDS011;5256;48.728;9.140;2022-08-18T00:15:52;0.20;;;0.20;;
10418;SDS011;5256;48.728;9.140;2022-08-18T00:18:17;0.40;;;0.40;;
10418;SDS011;5256;48.728;9.140;2022-08-18T00:20:43;0.30;;;0.30;;
10418;SDS011;5256;48.728;9.140;2022-08-18T00:23:09;0.20;;;0.20;;
10418;SDS011;5256;48.728;9.140;2022-08-18T00:25:35;0.20;;;0.20;;
10418;SDS011;5256;48.728;9.140;2022-08-18T00:28:01;0.20;;;0.20;;
10418;SDS011;5256;48.728;9.140;2022-08-18T00:30:27;0.37;;;0.37;;
10418;SDS011;5256;48.728;9.140;2022-08-18T00:32:54;0.30;;;0.30;;
10418;SDS011;5256;48.728;9.140;2022-08-18T00:35:28;0.20;;;0.20;;
10418;SDS011;5256;48.728;9.140;2022-08-18T00:37:57;0.20;;;0.20;;
10418;SDS011;5256;48.728;9.140;2022-08-18T00:40:26;0.23;;;0.23;;
10418;SDS011;5256;48.728;9.140;2022-08-18T00:42:55;0.30;;;0.30;;
10418;SDS011;5256;48.728;9.140;2022-08-18T00:45:27;0.30;;;0.30;;
10418;SDS011;5256;48.728;9.140;2022-08-18T00:47:56;0.20;;;0.20;;
10418;SDS011;5256;48.728;9.140;2022-08-18T00:50:26;0.30;;;0.30;;
10418;SDS011;5256;48.728;9.140;2022-08-18T00:53:02;0.27;;;0.27;;
10418;SDS011;5256;48.728;9.140;2022-08-18T00:55:30;0.30;;;0.30;;
10418;SDS011;5256;48.728;9.140;2022-08-18T00:58:03;0.20;;;0.20;;
10418;SDS011;5256;48.728;9.140;2022-08-18T01:00:34;0.20;;;0.20;;
10418;SDS011;5256;48.728;9.140;2022-08-18T01:03:09;0.20;;;0.20;;
10418;SDS011;5256;48.728;9.140;2022-08-18T01:05:42;0.20;;;0.20;;
10418;SDS011;5256;48.728;9.140;2022-08-18T01:08:27;0.20;;;0.20;;
10418;SDS011;5256;48.728;9.140;2022-08-18T01:10:53;0.30;;;0.30;;
10418;SDS011;5256;48.728;9.140;2022-08-18T01:13:19;0.30;;;0.30;;
10418;SDS011;5256;48.728;9.140;2022-08-18T01:15:49;0.20;;;0.20;;
10418;SDS011;5256;48.728;9.140;2022-08-18T01:18:14;0.30;;;0.30;;
10418;SDS011;5256;48.728;9.140;2022-08-18T01:21:03;0.37;;;0.37;;
10418;SDS011;5256;48.728;9.140;2022-08-18T01:24:06;0.30;;;0.30;;
10418;SDS011;5256;48.728;9.140;2022-08-18T01:26:34;0.30;;;0.30;;
10418;SDS011;5256;48.728;9.140;2022-08-18T01:29:06;0.20;;;0.20;;
10418;SDS011;5256;48.728;9.140;2022-08-18T01:31:39;0.30;;;0.30;;
10418;SDS011;5256;48.728;9.140;2022-08-18T01:34:07;0.30;;;0.30;;
10418;SDS011;5256;48.728;9.140;2022-08-18T01:36:35;0.40;;;0.40;;
10418;SDS011;5256;48.728;9.140;2022-08-18T01:39:05;0.30;;;0.30;;
10418;SDS011;5256;48.728;9.140;2022-08-18T01:41:32;0.20;;;0.20;;
10418;SDS011;5256;48.728;9.140;2022-08-18T01:43:58;0.30;;;0.30;;
10418;SDS011;5256;48.728;9.140;2022-08-18T01:46:25;0.27;;;0.27;;
10418;SDS011;5256;48.728;9.140;2022-08-18T01:48:52;0.30;;;0.30;;
10418;SDS011;5256;48.728;9.140;2022-08-18T01:51:19;0.30;;;0.30;;
10418;SDS011;5256;48.728;9.140;2022-08-18T01:53:45;0.20;;;0.20;;
10418;SDS011;5256;48.728;9.140;2022-08-18T01:56:12;0.30;;;0.30;;
10418;SDS011;5256;48.728;9.140;2022-08-18T01:58:41;0.20;;;0.20;;
10418;SDS011;5256;48.728;9.140;2022-08-18T02:01:08;0.20;;;0.20;;
10418;SDS011;5256;48.728;9.140;2022-08-18T02:03:40;0.30;;;0.30;;
10418;SDS011;5256;48.728;9.140;2022-08-18T02:06:11;0.30;;;0.30;;
10418;SDS011;5256;48.728;9.140;2022-08-18T02:08:38;0.20;;;0.20;;
10418;SDS011;5256;48.728;9.140;2022-08-18T02:11:04;0.27;;;0.27;;
10418;SDS011;5256;48.728;9.140;2022-08-18T02:13:31;0.20;;;0.20;;
10418;SDS011;5256;48.728;9.140;2022-08-18T02:15:58;0.30;;;0.30;;
10418;SDS011;5256;48.728;9.140;2022-08-18T02:18:25;0.30;;;0.30;;
10418;SDS011;5256;48.728;9.140;2022-08-18T02:20:53;0.20;;;0.20;;
10418;SDS011;5256;48.728;9.140;2022-08-18T02:23:20;0.43;;;0.43;;
10418;SDS011;5256;48.728;9.140;2022-08-18T02:25:46;0.30;;;0.30;;
10418;SDS011;5256;48.728;9.140;2022-08-18T02:28:12;0.20;;;0.20;;
10418;SDS011;5256;48.728;9.140;2022-08-18T02:30:38;0.40;;;0.40;;
10418;SDS011;5256;48.728;9.140;2022-08-18T02:33:04;0.20;;;0.20;;
10418;SDS011;5256;48.728;9.140;2022-08-18T02:35:31;0.30;;;0.30;;
10418;SDS011;5256;48.728;9.140;2022-08-18T02:38:01;0.20;;;0.20;;
10418;SDS011;5256;48.728;9.140;2022-08-18T02:40:29;0.20;;;0.20;;
10418;SDS011;5256;48.728;9.140;2022-08-18T02:42:56;0.30;;;0.30;;
10418;SDS011;5256;48.728;9.140;2022-08-18T02:45:22;0.30;;;0.30;;
10418;SDS011;5256;48.728;9.140;2022-08-18T02:47:52;0.20;;;0.20;;
10418;SDS011;5256;48.728;9.140;2022-08-18T02:50:18;0.30;;;0.30;;
10418;SDS011;5256;48.728;9.140;2022-08-18T02:52:44;0.20;;;0.20;;
10418;SDS011;5256;48.728;9.140;2022-08-18T02:55:09;0.20;;;0.20;;
10418;SDS011;5256;48.728;9.140;2022-08-18T02:57:37;0.27;;;0.27;;
10418;SDS011;5256;48.728;9.140;2022-08-18T03:00:10;0.23;;;0.23;;
10418;SDS011;5256;48.728;9.140;2022-08-18T03:02:38;0.20;;;0.20;;
10418;SDS011;5256;48.728;9.140;2022-08-18T03:05:04;0.20;;;0.20;;
10418;SDS011;5256;48.728;9.140;2022-08-18T03:07:31;0.30;;;0.30;;
10418;SDS011;5256;48.728;9.140;2022-08-18T03:09:57;0.30;;;0.30;;
10418;SDS011;5256;48.728;9.140;2022-08-18T03:12:22;0.30;;;0.30;;
10418;SDS011;5256;48.728;9.140;2022-08-18T03:14:49;0.30;;;0.30;;
10418;SDS011;5256;48.728;9.140;2022-08-18T03:17:14;0.30;;;0.30;;
10418;SDS011;5256;48.728;9.140;2022-08-18T03:19:40;0.30;;;0.30;;
10418;SDS011;5256;48.728;9.140;2022-08-18T03:22:08;0.20;;;0.20;;
10418;SDS011;5256;48.728;9.140;2022-08-18T03:24:34;0.23;;;0.23;;
10418;SDS011;5256;48.728;9.140;2022-08-18T03:27:02;0.20;;;0.20;;
10418;SDS011;5256;48.728;9.140;2022-08-18T03:29:30;0.30;;;0.30;;
10418;SDS011;5256;48.728;9.140;2022-08-18T03:31:55;0.23;;;0.23;;
10418;SDS011;5256;48.728;9.140;2022-08-18T03:34:21;0.23;;;0.23;;
10418;SDS011;5256;48.728;9.140;2022-08-18T03:36:50;0.40;;;0.40;;
10418;SDS011;5256;48.728;9.140;2022-08-18T03:39:16;0.30;;;0.30;;
10418;SDS011;5256;48.728;9.140;2022-08-18T03:41:43;0.27;;;0.27;;
10418;SDS011;5256;48.728;9.140;2022-08-18T03:44:10;0.33;;;0.33;;
10418;SDS011;5256;48.728;9.140;2022-08-18T03:46:39;0.30;;;0.30;;
10418;SDS011;5256;48.728;9.140;2022-08-18T03:49:06;0.33;;;0.33;;
10418;SDS011;5256;48.728;9.140;2022-08-18T03:51:31;0.20;;;0.20;;
10418;SDS011;5256;48.728;9.140;2022-08-18T03:53:58;0.33;;;0.33;;
10418;SDS011;5256;48.728;9.140;2022-08-18T03:56:28;0.30;;;0.30;;
10418;SDS011;5256;48.728;9.140;2022-08-18T03:59:05;0.30;;;0.30;;
10418;SDS011;5256;48.728;9.140;2022-08-18T04:01:36;0.20;;;0.20;;
10418;SDS011;5256;48.728;9.140;2022-08-18T04:04:05;0.30;;;0.30;;
10418;SDS011;5256;48.728;9.140;2022-08-18T04:06:37;0.30;;;0.30;;
10418;SDS011;5256;48.728;9.140;2022-08-18T04:09:07;0.30;;;0.30;;
10418;SDS011;5256;48.728;9.140;2022-08-18T04:11:35;0.20;;;0.20;;
10418;SDS011;5256;48.728;9.140;2022-08-18T04:14:02;0.20;;;0.20;;
10418;SDS011;5256;48.728;9.140;2022-08-18T04:16:29;0.20;;;0.20;;
10418;SDS011;5256;48.728;9.140;2022-08-18T04:18:59;0.20;;;0.20;;
10418;SDS011;5256;48.728;9.140;2022-08-18T04:21:27;0.20;;;0.20;;
10418;SDS011;5256;48.728;9.140;2022-08-18T04:23:55;0.30;;;0.30;;
10418;SDS011;5256;48.728;9.140;2022-08-18T04:26:21;0.20;;;0.20;;
10418;SDS011;5256;48.728;9.140;2022-08-18T04:28:47;0.20;;;0.20;;
10418;SDS011;5256;48.728;9.140;2022-08-18T04:31:13;0.20;;;0.20;;
10418;SDS011;5256;48.728;9.140;2022-08-18T04:33:39;0.20;;;0.20;;
10418;SDS011;5256;48.728;9.140;2022-08-18T04:36:07;0.20;;;0.20;;
10418;SDS011;5256;48.728;9.140;2022-08-18T04:38:34;0.30;;;0.30;;
10418;SDS011;5256;48.728;9.140;2022-08-18T04:41:00;0.30;;;0.30;;
10418;SDS011;5256;48.728;9.140;2022-08-18T04:43:27;0.30;;;0.30;;
10418;SDS011;5256;48.728;9.140;2022-08-18T04:45:54;0.30;;;0.30;;
10418;SDS011;5256;48.728;9.140;2022-08-18T04:48:26;0.43;;;0.43;;
10418;SDS011;5256;48.728;9.140;2022-08-18T04:50:56;0.30;;;0.30;;
10418;SDS011;5256;48.728;9.140;2022-08-18T04:53:22;0.30;;;0.30;;
10418;SDS011;5256;48.728;9.140;2022-08-18T04:56:06;0.27;;;0.27;;
10418;SDS011;5256;48.728;9.140;2022-08-18T04:58:31;0.30;;;0.30;;
10418;SDS011;5256;48.728;9.140;2022-08-18T05:00:57;0.20;;;0.20;;
10418;SDS011;5256;48.728;9.140;2022-08-18T05:03:25;0.30;;;0.30;;
10418;SDS011;5256;48.728;9.140;2022-08-18T05:05:52;0.30;;;0.30;;
10418;SDS011;5256;48.728;9.140;2022-08-18T05:08:18;0.20;;;0.20;;
10418;SDS011;5256;48.728;9.140;2022-08-18T05:10:44;0.30;;;0.30;;
10418;SDS011;5256;48.728;9.140;2022-08-18T05:13:11;0.30;;;0.30;;
10418;SDS011;5256;48.728;9.140;2022-08-18T05:15:40;0.30;;;0.30;;
10418;SDS011;5256;48.728;9.140;2022-08-18T05:18:06;0.30;;;0.30;;
10418;SDS011;5256;48.728;9.140;2022-08-18T05:20:31;0.30;;;0.30;;
10418;SDS011;5256;48.728;9.140;2022-08-18T05:22:57;0.20;;;0.20;;
10418;SDS011;5256;48.728;9.140;2022-08-18T05:25:23;0.30;;;0.30;;
10418;SDS011;5256;48.728;9.140;2022-08-18T05:27:48;0.30;;;0.30;;
10418;SDS011;5256;48.728;9.140;2022-08-18T05:30:14;0.20;;;0.20;;
10418;SDS011;5256;48.728;9.140;2022-08-18T05:32:43;0.30;;;0.30;;
10418;SDS011;5256;48.728;9.140;2022-08-18T05:35:11;0.20;;;0.20;;
10418;SDS011;5256;48.728;9.140;2022-08-18T05:41:08;0.20;;;0.20;;
10418;SDS011;5256;48.728;9.140;2022-08-18T05:43:58;0.20;;;0.20;;
10418;SDS011;5256;48.728;9.140;2022-08-18T05:46:28;0.20;;;0.20;;
10418;SDS011;5256;48.728;9.140;2022-08-18T05:49:01;0.20;;;0.20;;
10418;SDS011;5256;48.728;9.140;2022-08-18T05:51:28;0.30;;;0.30;;
10418;SDS011;5256;48.728;9.140;2022-08-18T05:53:59;0.20;;;0.20;;
10418;SDS011;5256;48.728;9.140;2022-08-18T05:56:44;0.20;;;0.20;;
10418;SDS011;5256;48.728;9.140;2022-08-18T05:59:20;0.20;;;0.20;;
10418;SDS011;5256;48.728;9.140;2022-08-18T06:01:52;0.20;;;0.20;;
10418;SDS011;5256;48.728;9.140;2022-08-18T06:04:42;0.20;;;0.20;;
10418;SDS011;5256;48.728;9.140;2022-08-18T06:07:32;0.20;;;0.20;;
10418;SDS011;5256;48.728;9.140;2022-08-18T06:10:11;0.30;;;0.30;;
10418;SDS011;5256;48.728;9.140;2022-08-18T06:21:04;0.20;;;0.20;;
10418;SDS011;5256;48.728;9.140;2022-08-18T06:36:57;0.10;;;0.10;;
10418;SDS011;5256;48.728;9.140;2022-08-18T06:39:34;0.20;;;0.20;;
10418;SDS011;5256;48.728;9.140;2022-08-18T06:42:07;0.20;;;0.20;;
10418;SDS011;5256;48.728;9.140;2022-08-18T06:44:38;0.20;;;0.20;;
10418;SDS011;5256;48.728;9.140;2022-08-18T06:47:18;0.20;;;0.20;;
10418;SDS011;5256;48.728;9.140;2022-08-18T06:49:53;0.20;;;0.20;;
10418;SDS011;5256;48.728;9.140;2022-08-18T06:52:34;0.23;;;0.23;;
10418;SDS011;5256;48.728;9.140;2022-08-18T06:55:08;0.20;;;0.20;;
10418;SDS011;5256;48.728;9.140;2022-08-18T06:57:53;0.20;;;0.20;;
10418;SDS011;5256;48.728;9.140;2022-08-18T07:00:25;0.20;;;0.20;;
10418;SDS011;5256;48.728;9.140;2022-08-18T07:06:01;0.20;;;0.20;;
10418;SDS011;5256;48.728;9.140;2022-08-18T07:08:31;0.20;;;0.20;;
10418;SDS011;5256;48.728;9.140;2022-08-18T07:13:51;0.10;;;0.10;;
10418;SDS011;5256;48.728;9.140;2022-08-18T07:16:22;0.20;;;0.20;;
10418;SDS011;5256;48.728;9.140;2022-08-18T07:22:03;0.10;;;0.10;;
10418;SDS011;5256;48.728;9.140;2022-08-18T07:24:41;0.20;;;0.20;;
10418;SDS011;5256;48.728;9.140;2022-08-18T07:27:13;0.20;;;0.20;;
10418;SDS011;5256;48.728;9.140;2022-08-18T07:32:35;0.20;;;0.20;;
10418;SDS011;5256;48.728;9.140;2022-08-18T07:35:17;0.13;;;0.13;;
10418;SDS011;5256;48.728;9.140;2022-08-18T07:43:36;0.20;;;0.20;;
10418;SDS011;5256;48.728;9.140;2022-08-18T07:49:18;0.20;;;0.20;;
10418;SDS011;5256;48.728;9.140;2022-08-18T07:51:47;0.20;;;0.20;;
10418;SDS011;5256;48.728;9.140;2022-08-18T07:55:02;0.10;;;0.10;;
10418;SDS011;5256;48.728;9.140;2022-08-18T07:57:17;0.20;;;0.20;;
10418;SDS011;5256;48.728;9.140;2022-08-18T07:59:53;0.20;;;0.20;;
10418;SDS011;5256;48.728;9.140;2022-08-18T08:05:19;0.20;;;0.20;;
10418;SDS011;5256;48.728;9.140;2022-08-18T08:11:04;0.30;;;0.30;;
10418;SDS011;5256;48.728;9.140;2022-08-18T08:19:48;0.27;;;0.27;;
10418;SDS011;5256;48.728;9.140;2022-08-18T08:22:36;0.30;;;0.30;;
10418;SDS011;5256;48.728;9.140;2022-08-18T08:27:55;0.30;;;0.30;;
10418;SDS011;5256;48.728;9.140;2022-08-18T08:30:54;0.17;;;0.17;;
10418;SDS011;5256;48.728;9.140;2022-08-18T08:33:39;0.20;;;0.20;;
10418;SDS011;5256;48.728;9.140;2022-08-18T08:36:12;0.30;;;0.30;;
10418;SDS011;5256;48.728;9.140;2022-08-18T08:38:46;0.20;;;0.20;;
10418;SDS011;5256;48.728;9.140;2022-08-18T08:41:22;0.10;;;0.10;;
10418;SDS011;5256;48.728;9.140;2022-08-18T08:44:06;0.20;;;0.20;;
10418;SDS011;5256;48.728;9.140;2022-08-18T08:46:47;0.13;;;0.13;;
10418;SDS011;5256;48.728;9.140;2022-08-18T08:49:38;0.10;;;0.10;;
10418;SDS011;5256;48.728;9.140;2022-08-18T08:55:03;0.13;;;0.13;;
10418;SDS011;5256;48.728;9.140;2022-08-18T08:57:41;0.10;;;0.10;;
10418;SDS011;5256;48.728;9.140;2022-08-18T09:00:15;0.10;;;0.10;;
10418;SDS011;5256;48.728;9.140;2022-08-18T09:02:55;0.10;;;0.10;;
10418;SDS011;5256;48.728;9.140;2022-08-18T09:05:33;0.10;;;0.10;;
10418;SDS011;5256;48.728;9.140;2022-08-18T09:08:19;0.10;;;0.10;;
10418;SDS011;5256;48.728;9.140;2022-08-18T09:11:05;0.10;;;0.10;;
10418;SDS011;5256;48.728;9.140;2022-08-18T09:13:47;0.10;;;0.10;;
10418;SDS011;5256;48.728;9.140;2022-08-18T09:16:46;0.10;;;0.10;;
10418;SDS011;5256;48.728;9.140;2022-08-18T09:24:51;0.20;;;0.20;;
10418;SDS011;5256;48.728;9.140;2022-08-18T09:30:10;0.10;;;0.10;;
10418;SDS011;5256;48.728;9.140;2022-08-18T09:38:47;0.10;;;0.10;;
10418;SDS011;5256;48.728;9.140;2022-08-18T09:41:55;0.10;;;0.10;;
10418;SDS011;5256;48.728;9.140;2022-08-18T09:49:56;0.10;;;0.10;;
10418;SDS011;5256;48.728;9.140;2022-08-18T09:57:42;0.10;;;0.10;;
10418;SDS011;5256;48.728;9.140;2022-08-18T10:07:46;0.10;;;0.10;;
10418;SDS011;5256;48.728;9.140;2022-08-18T10:15:58;0.10;;;0.10;;
10418;SDS011;5256;48.728;9.140;2022-08-18T10:27:07;0.10;;;0.10;;
10418;SDS011;5256;48.728;9.140;2022-08-18T10:29:43;0.10;;;0.10;;
10418;SDS011;5256;48.728;9.140;2022-08-18T10:34:41;0.10;;;0.10;;
10418;SDS011;5256;48.728;9.140;2022-08-18T10:39:56;0.10;;;0.10;;
10418;SDS011;5256;48.728;9.140;2022-08-18T10:42:30;0.10;;;0.10;;
10418;SDS011;5256;48.728;9.140;2022-08-18T10:45:07;0.20;;;0.20;;
10418;SDS011;5256;48.728;9.140;2022-08-18T10:47:35;0.13;;;0.13;;
10418;SDS011;5256;48.728;9.140;2022-08-18T10:50:03;0.10;;;0.10;;
10418;SDS011;5256;48.728;9.140;2022-08-18T11:01:05;0.17;;;0.17;;
10418;SDS011;5256;48.728;9.140;2022-08-18T11:04:04;0.10;;;0.10;;
10418;SDS011;5256;48.728;9.140;2022-08-18T11:06:49;0.20;;;0.20;;
10418;SDS011;5256;48.728;9.140;2022-08-18T11:09:24;0.10;;;0.10;;
10418;SDS011;5256;48.728;9.140;2022-08-18T11:11:53;0.20;;;0.20;;
10418;SDS011;5256;48.728;9.140;2022-08-18T11:14:40;0.10;;;0.10;;
10418;SDS011;5256;48.728;9.140;2022-08-18T11:17:19;0.10;;;0.10;;
10418;SDS011;5256;48.728;9.140;2022-08-18T11:19:47;0.10;;;0.10;;
10418;SDS011;5256;48.728;9.140;2022-08-18T11:22:23;0.10;;;0.10;;
10418;SDS011;5256;48.728;9.140;2022-08-18T11:24:53;0.10;;;0.10;;
10418;SDS011;5256;48.728;9.140;2022-08-18T11:27:23;0.10;;;0.10;;
10418;SDS011;5256;48.728;9.140;2022-08-18T11:29:50;0.10;;;0.10;;
10418;SDS011;5256;48.728;9.140;2022-08-18T11:40:29;0.10;;;0.10;;
10418;SDS011;5256;48.728;9.140;2022-08-18T11:54:18;0.10;;;0.10;;
10418;SDS011;5256;48.728;9.140;2022-08-18T11:56:22;0.20;;;0.20;;
10418;SDS011;5256;48.728;9.140;2022-08-18T11:58:51;0.17;;;0.17;;
10418;SDS011;5256;48.728;9.140;2022-08-18T12:03:57;0.10;;;0.10;;
10418;SDS011;5256;48.728;9.140;2022-08-18T12:06:32;0.10;;;0.10;;
10418;SDS011;5256;48.728;9.140;2022-08-18T12:09:21;0.17;;;0.17;;
10418;SDS011;5256;48.728;9.140;2022-08-18T12:11:55;0.10;;;0.10;;
10418;SDS011;5256;48.728;9.140;2022-08-18T12:14:30;0.10;;;0.10;;
10418;SDS011;5256;48.728;9.140;2022-08-18T12:16:58;0.10;;;0.10;;
10418;SDS011;5256;48.728;9.140;2022-08-18T12:19:24;0.10;;;0.10;;
10418;SDS011;5256;48.728;9.140;2022-08-18T12:21:57;0.20;;;0.20;;
10418;SDS011;5256;48.728;9.140;2022-08-18T12:24:25;0.20;;;0.20;;
10418;SDS011;5256;48.728;9.140;2022-08-18T12:26:56;0.10;;;0.10;;
10418;SDS011;5256;48.728;9.140;2022-08-18T12:29:23;0.13;;;0.13;;
10418;SDS011;5256;48.728;9.140;2022-08-18T12:31:50;0.10;;;0.10;;
10418;SDS011;5256;48.728;9.140;2022-08-18T12:34:18;0.10;;;0.10;;
10418;SDS011;5256;48.728;9.140;2022-08-18T12:36:48;0.10;;;0.10;;
10418;SDS011;5256;48.728;9.140;2022-08-18T12:39:15;0.10;;;0.10;;
10418;SDS011;5256;48.728;9.140;2022-08-18T12:41:41;0.10;;;0.10;;
10418;SDS011;5256;48.728;9.140;2022-08-18T12:44:07;0.10;;;0.10;;
10418;SDS011;5256;48.728;9.140;2022-08-18T12:46:33;0.17;;;0.17;;
10418;SDS011;5256;48.728;9.140;2022-08-18T12:48:59;0.10;;;0.10;;
10418;SDS011;5256;48.728;9.140;2022-08-18T12:51:26;0.20;;;0.20;;
10418;SDS011;5256;48.728;9.140;2022-08-18T12:53:52;0.10;;;0.10;;
10418;SDS011;5256;48.728;9.140;2022-08-18T12:56:20;0.17;;;0.17;;
10418;SDS011;5256;48.728;9.140;2022-08-18T12:58:48;0.13;;;0.13;;
10418;SDS011;5256;48.728;9.140;2022-08-18T13:01:15;0.20;;;0.20;;
10418;SDS011;5256;48.728;9.140;2022-08-18T13:03:41;0.20;;;0.20;;
10418;SDS011;5256;48.728;9.140;2022-08-18T13:06:08;0.10;;;0.10;;
10418;SDS011;5256;48.728;9.140;2022-08-18T13:08:34;0.10;;;0.10;;
10418;SDS011;5256;48.728;9.140;2022-08-18T13:10:59;0.10;;;0.10;;
10418;SDS011;5256;48.728;9.140;2022-08-18T13:13:25;0.10;;;0.10;;
10418;SDS011;5256;48.728;9.140;2022-08-18T13:15:51;0.13;;;0.13;;
10418;SDS011;5256;48.728;9.140;2022-08-18T13:18:18;0.10;;;0.10;;
10418;SDS011;5256;48.728;9.140;2022-08-18T13:20:44;0.10;;;0.10;;
10418;SDS011;5256;48.728;9.140;2022-08-18T13:23:09;0.10;;;0.10;;
10418;SDS011;5256;48.728;9.140;2022-08-18T13:25:35;0.10;;;0.10;;
10418;SDS011;5256;48.728;9.140;2022-08-18T13:28:03;0.20;;;0.20;;
10418;SDS011;5256;48.728;9.140;2022-08-18T13:30:29;0.10;;;0.10;;
10418;SDS011;5256;48.728;9.140;2022-08-18T13:32:55;0.10;;;0.10;;
10418;SDS011;5256;48.728;9.140;2022-08-18T13:35:21;0.20;;;0.20;;
10418;SDS011;5256;48.728;9.140;2022-08-18T13:37:47;0.10;;;0.10;;
10418;SDS011;5256;48.728;9.140;2022-08-18T13:40:12;0.20;;;0.20;;
10418;SDS011;5256;48.728;9.140;2022-08-18T13:42:45;0.20;;;0.20;;
10418;SDS011;5256;48.728;9.140;2022-08-18T13:45:17;0.10;;;0.10;;
10418;SDS011;5256;48.728;9.140;2022-08-18T13:47:46;0.10;;;0.10;;
10418;SDS011;5256;48.728;9.140;2022-08-18T13:50:13;0.10;;;0.10;;
10418;SDS011;5256;48.728;9.140;2022-08-18T13:52:40;0.10;;;0.10;;
10418;SDS011;5256;48.728;9.140;2022-08-18T13:55:08;0.10;;;0.10;;
10418;SDS011;5256;48.728;9.140;2022-08-18T13:57:37;0.10;;;0.10;;
10418;SDS011;5256;48.728;9.140;2022-08-18T14:00:04;0.10;;;0.10;;
10418;SDS011;5256;48.728;9.140;2022-08-18T14:02:32;0.10;;;0.10;;
10418;SDS011;5256;48.728;9.140;2022-08-18T14:04:58;0.10;;;0.10;;
10418;SDS011;5256;48.728;9.140;2022-08-18T14:07:24;0.10;;;0.10;;
10418;SDS011;5256;48.728;9.140;2022-08-18T14:09:49;0.10;;;0.10;;
10418;SDS011;5256;48.728;9.140;2022-08-18T14:12:16;0.10;;;0.10;;
10418;SDS011;5256;48.728;9.140;2022-08-18T14:14:44;0.10;;;0.10;;
10418;SDS011;5256;48.728;9.140;2022-08-18T14:17:10;0.10;;;0.10;;
10418;SDS011;5256;48.728;9.140;2022-08-18T14:19:35;0.10;;;0.10;;
10418;SDS011;5256;48.728;9.140;2022-08-18T14:22:20;0.10;;;0.10;;
10418;SDS011;5256;48.728;9.140;2022-08-18T14:25:04;0.10;;;0.10;;
10418;SDS011;5256;48.728;9.140;2022-08-18T14:27:48;0.17;;;0.17;;
10418;SDS011;5256;48.728;9.140;2022-08-18T14:30:14;0.10;;;0.10;;
10418;SDS011;5256;48.728;9.140;2022-08-18T14:32:42;0.10;;;0.10;;
10418;SDS011;5256;48.728;9.140;2022-08-18T14:35:09;0.10;;;0.10;;
10418;SDS011;5256;48.728;9.140;2022-08-18T14:37:37;0.17;;;0.17;;
10418;SDS011;5256;48.728;9.140;2022-08-18T14:40:03;0.10;;;0.10;;
10418;SDS011;5256;48.728;9.140;2022-08-18T14:42:31;0.20;;;0.20;;
10418;SDS011;5256;48.728;9.140;2022-08-18T14:44:57;0.10;;;0.10;;
10418;SDS011;5256;48.728;9.140;2022-08-18T14:47:23;0.13;;;0.13;;
10418;SDS011;5256;48.728;9.140;2022-08-18T14:49:51;0.10;;;0.10;;
10418;SDS011;5256;48.728;9.140;2022-08-18T14:52:18;0.10;;;0.10;;
10418;SDS011;5256;48.728;9.140;2022-08-18T14:54:44;0.10;;;0.10;;
10418;SDS011;5256;48.728;9.140;2022-08-18T14:57:10;0.10;;;0.10;;
10418;SDS011;5256;48.728;9.140;2022-08-18T14:59:36;0.10;;;0.10;;
10418;SDS011;5256;48.728;9.140;2022-08-18T15:02:02;0.10;;;0.10;;
10418;SDS011;5256;48.728;9.140;2022-08-18T15:04:29;0.00;;;0.00;;
10418;SDS011;5256;48.728;9.140;2022-08-18T15:06:54;0.20;;;0.20;;
10418;SDS011;5256;48.728;9.140;2022-08-18T15:09:20;0.10;;;0.10;;
10418;SDS011;5256;48.728;9.140;2022-08-18T15:11:46;0.10;;;0.10;;
10418;SDS011;5256;48.728;9.140;2022-08-18T15:14:13;0.10;;;0.10;;
10418;SDS011;5256;48.728;9.140;2022-08-18T15:16:41;0.10;;;0.10;;
10418;SDS011;5256;48.728;9.140;2022-08-18T15:19:07;0.10;;;0.10;;
10418;SDS011;5256;48.728;9.140;2022-08-18T15:21:32;0.10;;;0.10;;
10418;SDS011;5256;48.728;9.140;2022-08-18T15:24:17;0.10;;;0.10;;
10418;SDS011;5256;48.728;9.140;2022-08-18T15:27:01;0.10;;;0.10;;
10418;SDS011;5256;48.728;9.140;2022-08-18T15:29:29;0.10;;;0.10;;
10418;SDS011;5256;48.728;9.140;2022-08-18T15:31:56;0.10;;;0.10;;
10418;SDS011;5256;48.728;9.140;2022-08-18T15:34:22;0.10;;;0.10;;
10418;SDS011;5256;48.728;9.140;2022-08-18T15:36:48;0.10;;;0.10;;
10418;SDS011;5256;48.728;9.140;2022-08-18T15:39:13;0.10;;;0.10;;
10418;SDS011;5256;48.728;9.140;2022-08-18T15:41:40;0.10;;;0.10;;
10418;SDS011;5256;48.728;9.140;2022-08-18T15:44:10;0.10;;;0.10;;
10418;SDS011;5256;48.728;9.140;2022-08-18T15:46:38;0.10;;;0.10;;
10418;SDS011;5256;48.728;9.140;2022-08-18T15:49:04;0.10;;;0.10;;
10418;SDS011;5256;48.728;9.140;2022-08-18T15:51:32;0.10;;;0.10;;
10418;SDS011;5256;48.728;9.140;2022-08-18T15:53:59;0.10;;;0.10;;
10418;SDS011;5256;48.728;9.140;2022-08-18T15:56:24;0.10;;;0.10;;
10418;SDS011;5256;48.728;9.140;2022-08-18T15:58:52;0.20;;;0.20;;
10418;SDS011;5256;48.728;9.140;2022-08-18T16:01:18;0.10;;;0.10;;
10418;SDS011;5256;48.728;9.140;2022-08-18T16:03:46;0.10;;;0.10;;
10418;SDS011;5256;48.728;9.140;2022-08-18T16:06:16;0.10;;;0.10;;
10418;SDS011;5256;48.728;9.140;2022-08-18T16:08:44;0.20;;;0.20;;
10418;SDS011;5256;48.728;9.140;2022-08-18T16:11:11;0.10;;;0.10;;
10418;SDS011;5256;48.728;9.140;2022-08-18T16:13:37;0.10;;;0.10;;
10418;SDS011;5256;48.728;9.140;2022-08-18T16:16:07;0.10;;;0.10;;
10418;SDS011;5256;48.728;9.140;2022-08-18T16:18:37;0.10;;;0.10;;
10418;SDS011;5256;48.728;9.140;2022-08-18T16:21:07;0.10;;;0.10;;
10418;SDS011;5256;48.728;9.140;2022-08-18T16:23:43;0.10;;;0.10;;
10418;SDS011;5256;48.728;9.140;2022-08-18T16:26:11;0.10;;;0.10;;
10418;SDS011;5256;48.728;9.140;2022-08-18T16:28:39;0.10;;;0.10;;
10418;SDS011;5256;48.728;9.140;2022-08-18T16:31:06;0.10;;;0.10;;
10418;SDS011;5256;48.728;9.140;2022-08-18T16:33:33;0.10;;;0.10;;
10418;SDS011;5256;48.728;9.140;2022-08-18T16:36:03;0.10;;;0.10;;
10418;SDS011;5256;48.728;9.140;2022-08-18T16:38:31;0.20;;;0.20;;
10418;SDS011;5256;48.728;9.140;2022-08-18T16:41:02;0.10;;;0.10;;
10418;SDS011;5256;48.728;9.140;2022-08-18T16:43:33;0.10;;;0.10;;
10418;SDS011;5256;48.728;9.140;2022-08-18T16:46:01;0.20;;;0.20;;
10418;SDS011;5256;48.728;9.140;2022-08-18T16:48:27;0.20;;;0.20;;
10418;SDS011;5256;48.728;9.140;2022-08-18T16:50:54;0.20;;;0.20;;
10418;SDS011;5256;48.728;9.140;2022-08-18T16:53:19;0.10;;;0.10;;
10418;SDS011;5256;48.728;9.140;2022-08-18T16:55:45;0.10;;;0.10;;
10418;SDS011;5256;48.728;9.140;2022-08-18T16:58:11;0.20;;;0.20;;
10418;SDS011;5256;48.728;9.140;2022-08-18T17:00:55;0.13;;;0.13;;
10418;SDS011;5256;48.728;9.140;2022-08-18T17:03:40;0.10;;;0.10;;
10418;SDS011;5256;48.728;9.140;2022-08-18T17:06:25;0.20;;;0.20;;
10418;SDS011;5256;48.728;9.140;2022-08-18T17:08:56;0.17;;;0.17;;
10418;SDS011;5256;48.728;9.140;2022-08-18T17:11:22;0.20;;;0.20;;
10418;SDS011;5256;48.728;9.140;2022-08-18T17:13:51;0.10;;;0.10;;
10418;SDS011;5256;48.728;9.140;2022-08-18T17:16:18;0.20;;;0.20;;
10418;SDS011;5256;48.728;9.140;2022-08-18T17:18:44;0.10;;;0.10;;
10418;SDS011;5256;48.728;9.140;2022-08-18T17:21:11;0.10;;;0.10;;
10418;SDS011;5256;48.728;9.140;2022-08-18T17:23:40;0.13;;;0.13;;
10418;SDS011;5256;48.728;9.140;2022-08-18T17:28:53;0.20;;;0.20;;
10418;SDS011;5256;48.728;9.140;2022-08-18T17:31:29;0.20;;;0.20;;
10418;SDS011;5256;48.728;9.140;2022-08-18T17:33:56;0.10;;;0.10;;
10418;SDS011;5256;48.728;9.140;2022-08-18T17:36:41;0.20;;;0.20;;
10418;SDS011;5256;48.728;9.140;2022-08-18T17:39:17;0.10;;;0.10;;
10418;SDS011;5256;48.728;9.140;2022-08-18T17:41:48;0.17;;;0.17;;
10418;SDS011;5256;48.728;9.140;2022-08-18T17:44:32;0.10;;;0.10;;
10418;SDS011;5256;48.728;9.140;2022-08-18T17:47:01;0.20;;;0.20;;
10418;SDS011;5256;48.728;9.140;2022-08-18T17:49:36;0.10;;;0.10;;